Time;durP1;ratioP1;P1;durP2;ratioP2;P2;SDS_P1;SDS_P2;PMS_P1;PMS_P2;Temp;Humidity;BMP_temperature;BMP_pressure;BME280_temperature;BME280_humidity;BME280_pressure;Samples;Min_cycle;Max_cycle;Signal;HPM_P1;HPM_P2
2023/05/24 06:55:43;;;;;;;6.35;0.85;;;23.70;93.70;;;;;;4956048;23;20243;-77
2023/05/24 06:58:13;;;;;;;3.10;1.13;;;23.40;93.40;;;;;;4955134;28;20295;-78
2023/05/24 07:00:40;;;;;;;6.45;1.23;;;23.30;94.00;;;;;;4956453;28;20784;-77
2023/05/24 07:03:08;;;;;;;3.40;1.10;;;23.80;93.10;;;;;;4957531;28;20230;-76
2023/05/24 07:05:35;;;;;;;4.63;1.13;;;24.40;92.60;;;;;;4957462;28;20295;-76
2023/05/24 07:08:02;;;;;;;4.43;1.33;;;24.70;92.40;;;;;;4954908;29;20276;-74
2023/05/24 07:10:29;;;;;;;7.80;1.55;;;24.30;92.90;;;;;;4938386;29;20215;-74
2023/05/24 07:12:58;;;;;;;5.88;1.13;;;23.50;93.10;;;;;;4938024;29;20233;-74
2023/05/24 07:15:25;;;;;;;7.72;1.30;;;23.50;93.00;;;;;;4938189;29;20308;-74
2023/05/24 07:17:51;;;;;;;4.45;0.95;;;24.00;92.30;;;;;;4950329;29;20306;-74
2023/05/24 07:20:18;;;;;;;5.20;1.05;;;24.50;92.30;;;;;;4938324;29;20247;-74
2023/05/24 07:22:45;;;;;;;3.50;1.08;;;25.70;91.60;;;;;;4937863;29;20260;-77
2023/05/24 07:25:12;;;;;;;5.85;1.15;;;26.00;90.70;;;;;;4937910;29;20244;-76
2023/05/24 07:27:39;;;;;;;4.85;1.25;;;25.90;91.10;;;;;;4937285;29;20291;-76
2023/05/24 07:30:09;;;;;;;2.38;0.70;;;25.60;90.90;;;;;;4918864;29;20292;-77
2023/05/24 07:32:36;;;;;;;3.05;0.70;;;24.70;91.30;;;;;;4919279;29;20234;-77
2023/05/24 07:35:03;;;;;;;3.22;0.90;;;23.30;92.80;;;;;;4918887;29;20209;-76
2023/05/24 07:37:29;;;;;;;4.10;1.05;;;22.60;93.00;;;;;;4918887;29;20256;-77
2023/05/24 07:39:56;;;;;;;2.75;0.73;;;21.80;93.90;;;;;;4937054;29;20786;-75
2023/05/24 07:42:23;;;;;;;4.30;0.70;;;21.20;93.40;;;;;;4937638;29;20315;-75
2023/05/24 07:44:50;;;;;;;2.67;0.80;;;20.40;94.30;;;;;;4938133;29;20628;-75
2023/05/24 07:47:18;;;;;;;2.70;0.98;;;19.70;94.70;;;;;;4941444;29;20334;-76
2023/05/24 07:49:46;;;;;;;5.20;1.00;;;19.00;96.30;;;;;;4943462;29;20209;-75
2023/05/24 07:52:13;;;;;;;4.18;1.00;;;18.90;96.40;;;;;;4933886;29;20228;-75
2023/05/24 07:54:40;;;;;;;4.40;1.00;;;18.30;97.20;;;;;;4951630;29;20564;-76
2023/05/24 07:57:08;;;;;;;7.10;1.52;;;18.30;97.20;;;;;;4939307;29;20208;-75
2023/05/24 07:59:35;;;;;;;4.97;1.23;;;18.20;97.50;;;;;;4943746;29;20291;-74
2023/05/24 08:02:04;;;;;;;5.30;0.95;;;18.40;98.50;;;;;;4943441;29;20292;-76
2023/05/24 08:04:32;;;;;;;6.07;1.25;;;19.10;98.30;;;;;;4950136;29;20674;-75
2023/05/24 08:07:01;;;;;;;4.57;1.10;;;19.40;97.90;;;;;;4940885;29;20209;-76
2023/05/24 08:09:32;;;;;;;5.15;1.23;;;19.40;97.20;;;;;;4942944;29;20220;-75
2023/05/24 08:11:59;;;;;;;6.72;1.00;;;19.50;97.10;;;;;;4940115;29;20279;-74
2023/05/24 08:14:26;;;;;;;5.15;1.17;;;19.10;97.10;;;;;;4946193;29;20258;-76
2023/05/24 08:16:53;;;;;;;5.80;1.25;;;19.10;97.20;;;;;;4958347;29;20207;-78
2023/05/24 08:19:20;;;;;;;4.82;1.10;;;18.70;97.60;;;;;;4943138;29;20264;-77
2023/05/24 08:21:48;;;;;;;2.55;1.08;;;19.10;97.50;;;;;;4938368;29;20236;-84
2023/05/24 08:24:15;;;;;;;4.30;1.05;;;18.90;97.80;;;;;;4938514;29;20260;-76
2023/05/24 08:26:44;;;;;;;3.67;0.93;;;19.50;97.40;;;;;;4936089;29;20244;-76
2023/05/24 08:29:11;;;;;;;4.63;1.30;;;19.80;97.60;;;;;;4935770;29;20244;-76
2023/05/24 08:31:38;;;;;;;6.65;1.40;;;21.00;96.40;;;;;;4942030;28;20229;-76
2023/05/24 08:34:05;;;;;;;6.22;1.13;;;21.80;95.40;;;;;;4946361;28;20239;-72
2023/05/24 08:36:31;;;;;;;7.07;1.38;;;22.20;95.50;;;;;;4954515;28;20705;-74
2023/05/24 08:39:00;;;;;;;4.53;1.40;;;22.60;95.30;;;;;;4937021;28;20212;-75
2023/05/24 08:41:28;;;;;;;5.25;1.55;;;22.90;95.00;;;;;;4934420;29;20268;-75
2023/05/24 08:43:58;;;;;;;4.75;1.83;;;24.00;94.50;;;;;;4950799;28;20221;-74
2023/05/24 08:46:26;;;;;;;4.85;1.50;;;24.40;93.70;;;;;;4945378;28;20217;-74
2023/05/24 08:48:53;;;;;;;3.72;1.35;;;24.80;92.90;;;;;;4934577;29;20269;-74
2023/05/24 08:51:20;;;;;;;4.78;1.30;;;24.50;93.40;;;;;;4933791;29;20719;-76
2023/05/24 08:53:49;;;;;;;7.65;1.35;;;24.30;93.90;;;;;;4944978;29;20212;-72
2023/05/24 08:56:18;;;;;;;6.13;1.58;;;23.80;93.20;;;;;;4953911;29;20220;-72
2023/05/24 08:58:45;;;;;;;5.03;1.25;;;22.30;93.80;;;;;;4943717;29;20201;-74
2023/05/24 09:01:14;;;;;;;5.78;1.83;;;21.80;94.60;;;;;;4934654;29;20299;-76
2023/05/24 09:03:42;;;;;;;5.90;1.38;;;22.10;92.80;;;;;;4934875;29;20212;-76
2023/05/24 09:06:10;;;;;;;6.15;1.60;;;22.50;93.40;;;;;;4936147;29;20667;-77
2023/05/24 09:08:38;;;;;;;8.98;1.30;;;22.60;93.80;;;;;;4936048;29;20217;-76
2023/05/24 09:11:07;;;;;;;6.22;1.45;;;22.60;93.60;;;;;;4936086;29;20235;-76
2023/05/24 09:13:35;;;;;;;4.70;1.30;;;21.90;93.90;;;;;;4936538;29;20299;-77
2023/05/24 09:16:03;;;;;;;5.78;1.40;;;21.80;91.40;;;;;;4935636;29;20208;-76
2023/05/24 09:18:30;;;;;;;4.60;1.08;;;21.80;91.90;;;;;;4936335;29;20236;-77
2023/05/24 09:20:57;;;;;;;4.10;1.02;;;21.70;91.80;;;;;;4936221;29;20278;-77
2023/05/24 09:23:25;;;;;;;4.93;1.30;;;21.60;92.50;;;;;;4936241;29;20735;-76
2023/05/24 09:25:52;;;;;;;4.28;1.00;;;21.40;92.90;;;;;;4936347;29;20236;-77
2023/05/24 09:28:21;;;;;;;4.28;1.00;;;21.30;93.40;;;;;;4936205;29;20252;-76
2023/05/24 09:31:00;;;;;;;5.00;1.25;;;21.70;92.90;;;;;;4936246;29;20205;-76
2023/05/24 09:33:31;;;;;;;5.22;1.25;;;21.30;93.10;;;;;;4936094;29;20212;-77
2023/05/24 09:35:59;;;;;;;3.65;1.42;;;21.20;92.90;;;;;;4936066;29;20244;-77
2023/05/24 09:38:26;;;;;;;5.40;1.55;;;21.10;91.50;;;;;;4935932;29;20212;-77
2023/05/24 09:41:01;;;;;;;5.40;1.30;;;20.40;92.10;;;;;;4935865;29;20236;-76
2023/05/24 09:43:30;;;;;;;4.22;1.23;;;20.20;93.70;;;;;;4936071;29;20239;-76
2023/05/24 09:45:59;;;;;;;7.93;1.40;;;20.30;93.30;;;;;;4936469;29;20243;-77
2023/05/24 09:48:26;;;;;;;8.13;1.17;;;19.70;94.60;;;;;;4936027;29;20268;-76
2023/05/24 09:51:04;;;;;;;4.85;1.23;;;20.20;93.60;;;;;;4935978;29;20209;-77
2023/05/24 09:53:32;;;;;;;6.57;1.30;;;21.10;93.60;;;;;;4936198;29;20215;-76
2023/05/24 09:56:00;;;;;;;3.10;1.10;;;21.50;92.80;;;;;;4935707;29;20219;-76
2023/05/24 09:58:31;;;;;;;3.35;1.10;;;21.50;93.30;;;;;;4935941;29;20211;-76
2023/05/24 10:01:06;;;;;;;4.55;1.15;;;21.60;92.60;;;;;;4935801;29;20727;-76
2023/05/24 10:03:33;;;;;;;6.82;1.38;;;21.70;93.50;;;;;;4936074;29;20222;-76
2023/05/24 10:06:00;;;;;;;4.55;1.38;;;21.20;94.10;;;;;;4935922;29;20232;-77
2023/05/24 10:08:28;;;;;;;8.40;1.70;;;21.80;94.60;;;;;;4936366;29;20208;-76
2023/05/24 10:10:56;;;;;;;3.30;1.40;;;21.90;93.10;;;;;;4935849;29;20213;-77
2023/05/24 10:13:23;;;;;;;4.68;1.23;;;22.10;93.00;;;;;;4936138;29;20209;-76
2023/05/24 10:15:50;;;;;;;7.38;1.67;;;22.40;92.90;;;;;;4935619;29;20213;-76
2023/05/24 10:18:19;;;;;;;4.85;1.60;;;22.30;92.90;;;;;;4935304;29;20668;-76
2023/05/24 10:20:46;;;;;;;9.98;2.03;;;22.70;93.40;;;;;;4935736;29;20233;-75
2023/05/24 10:23:19;;;;;;;5.03;1.65;;;22.70;93.10;;;;;;4935420;29;20272;-75
2023/05/24 10:25:52;;;;;;;6.13;1.50;;;22.20;93.30;;;;;;4934919;29;20248;-76
2023/05/24 10:28:22;;;;;;;3.50;1.58;;;21.90;93.40;;;;;;4938178;29;20212;-75
2023/05/24 10:31:01;;;;;;;6.85;1.85;;;21.90;93.50;;;;;;4939495;29;20213;-76
2023/05/24 10:33:30;;;;;;;6.10;1.67;;;21.20;95.10;;;;;;4938966;29;20205;-76
2023/05/24 10:35:58;;;;;;;4.35;1.95;;;21.20;95.60;;;;;;4938954;29;20240;-75
2023/05/24 10:38:25;;;;;;;6.93;2.33;;;21.00;95.70;;;;;;4938802;29;20220;-75
2023/05/24 10:40:52;;;;;;;6.00;1.90;;;21.30;95.00;;;;;;4938772;29;20514;-76
2023/05/24 10:43:21;;;;;;;4.22;1.90;;;21.40;93.70;;;;;;4938758;29;20296;-75
2023/05/24 10:45:51;;;;;;;8.77;2.28;;;21.20;94.00;;;;;;4938822;29;20244;-74
2023/05/24 10:48:39;;;;;;;7.85;2.42;;;20.20;95.40;;;;;;4938605;29;20220;-75
2023/05/24 10:51:35;;;;;;;8.00;2.60;;;20.10;95.70;;;;;;4938563;29;20615;-76
2023/05/24 10:54:15;;;;;;;4.13;2.42;;;19.80;96.40;;;;;;4938293;29;20216;-76
2023/05/24 10:56:44;;;;;;;6.65;2.90;;;19.80;96.50;;;;;;4938480;29;20208;-76
2023/05/24 10:59:28;;;;;;;5.68;2.78;;;19.60;96.80;;;;;;4938569;29;20256;-76
2023/05/24 11:01:57;;;;;;;7.43;2.80;;;19.90;96.80;;;;;;4938173;29;20763;-76
2023/05/24 11:04:26;;;;;;;8.35;3.15;;;20.00;95.80;;;;;;4938317;29;20586;-76
2023/05/24 11:06:56;;;;;;;7.03;3.15;;;19.80;95.50;;;;;;4938423;29;20212;-77
2023/05/24 11:09:26;;;;;;;11.38;3.95;;;20.00;96.00;;;;;;4938353;29;20213;-76
2023/05/24 11:11:57;;;;;;;9.43;3.60;;;20.00;96.20;;;;;;4938366;29;20303;-76
2023/05/24 11:14:27;;;;;;;6.38;4.07;;;20.00;96.80;;;;;;4938174;29;20735;-77
2023/05/24 11:16:55;;;;;;;8.18;3.90;;;19.80;97.10;;;;;;4938101;29;20304;-76
2023/05/24 11:19:23;;;;;;;8.95;3.38;;;19.90;96.00;;;;;;4938134;29;20607;-76
2023/05/24 11:21:53;;;;;;;7.35;3.30;;;20.10;95.80;;;;;;4938295;29;20320;-76
2023/05/24 11:24:22;;;;;;;6.82;2.95;;;20.40;96.10;;;;;;4938320;29;20204;-76
2023/05/24 11:26:50;;;;;;;5.68;3.00;;;20.60;95.90;;;;;;4937675;29;20209;-76
2023/05/24 11:29:20;;;;;;;5.85;3.08;;;20.60;95.60;;;;;;4938184;29;20204;-76
2023/05/24 11:31:49;;;;;;;11.38;2.70;;;20.50;95.60;;;;;;4937870;29;20636;-76
2023/05/24 11:34:17;;;;;;;7.03;2.58;;;20.10;95.40;;;;;;4937850;29;20209;-77
2023/05/24 11:36:44;;;;;;;7.40;3.28;;;19.70;96.20;;;;;;4938478;29;20208;-76
2023/05/24 11:39:13;;;;;;;5.13;2.88;;;19.50;97.30;;;;;;4936711;29;20210;-76
2023/05/24 11:41:40;;;;;;;11.00;3.17;;;19.70;96.90;;;;;;4937747;29;20304;-76
2023/05/24 11:44:09;;;;;;;6.25;2.63;;;20.20;96.50;;;;;;4939896;29;20214;-76
2023/05/24 11:46:37;;;;;;;6.32;2.53;;;20.50;96.40;;;;;;4937856;29;20700;-76
2023/05/24 11:49:05;;;;;;;5.57;2.45;;;20.70;96.30;;;;;;4937938;29;20213;-76
2023/05/24 11:51:33;;;;;;;4.88;2.40;;;20.60;95.70;;;;;;4937426;29;20636;-77
2023/05/24 11:54:01;;;;;;;7.18;2.33;;;20.70;95.60;;;;;;4938222;29;20600;-76
2023/05/24 11:56:31;;;;;;;6.22;2.60;;;20.40;96.30;;;;;;4938565;29;20244;-76
2023/05/24 11:59:08;;;;;;;10.65;2.85;;;20.50;96.40;;;;;;4937911;29;20213;-76
2023/05/24 12:01:36;;;;;;;8.38;2.47;;;20.30;96.20;;;;;;4937320;29;20319;-75
2023/05/24 12:04:06;;;;;;;8.93;2.80;;;20.30;96.40;;;;;;4937340;29;20256;-76
2023/05/24 12:06:38;;;;;;;5.30;2.45;;;20.20;96.10;;;;;;4937319;29;20616;-76
2023/05/24 12:09:09;;;;;;;8.07;2.35;;;20.10;96.10;;;;;;4937550;29;20209;-76
2023/05/24 12:11:40;;;;;;;9.70;2.33;;;20.10;96.40;;;;;;4937809;29;20251;-75
2023/05/24 12:14:11;;;;;;;6.47;2.80;;;20.10;96.80;;;;;;4937268;29;20215;-75
2023/05/24 12:16:38;;;;;;;9.50;2.90;;;20.10;96.40;;;;;;4937392;29;20212;-75
2023/05/24 12:19:05;;;;;;;6.18;2.45;;;20.30;95.90;;;;;;4936960;29;20255;-75
2023/05/24 12:21:33;;;;;;;8.00;2.40;;;20.40;95.80;;;;;;4936734;29;20283;-76
2023/05/24 12:24:10;;;;;;;7.50;3.08;;;20.20;96.30;;;;;;4936422;29;20215;-76
2023/05/24 12:26:42;;;;;;;6.15;2.63;;;20.10;96.20;;;;;;4937063;29;20204;-75
2023/05/24 12:29:10;;;;;;;6.63;2.38;;;20.20;96.10;;;;;;4936883;29;20213;-76
2023/05/24 12:31:39;;;;;;;6.53;2.85;;;20.30;96.80;;;;;;4936687;29;20262;-75
2023/05/24 12:34:06;;;;;;;4.57;2.40;;;20.30;95.90;;;;;;4936398;29;20256;-76
2023/05/24 12:36:35;;;;;;;9.27;2.70;;;20.40;96.20;;;;;;4937011;29;20283;-75
2023/05/24 12:39:17;;;;;;;6.93;2.45;;;20.50;96.10;;;;;;4936751;29;20213;-75
2023/05/24 12:41:49;;;;;;;5.55;2.75;;;20.50;96.10;;;;;;4936605;29;20268;-75
2023/05/24 12:44:16;;;;;;;7.00;2.40;;;20.50;96.20;;;;;;4936636;29;20300;-75
2023/05/24 12:46:43;;;;;;;5.15;2.10;;;20.50;96.50;;;;;;4936705;29;20680;-76
2023/05/24 12:49:10;;;;;;;5.95;2.20;;;20.20;96.70;;;;;;4936721;29;20291;-75
2023/05/24 12:51:37;;;;;;;5.47;2.35;;;20.00;96.90;;;;;;4936257;29;20561;-76
2023/05/24 12:54:04;;;;;;;6.43;2.38;;;19.90;97.20;;;;;;4936556;29;20296;-76
2023/05/24 12:56:31;;;;;;;7.78;2.22;;;20.00;97.00;;;;;;4936316;29;20256;-75
2023/05/24 12:59:00;;;;;;;10.38;2.70;;;20.00;96.80;;;;;;4936375;29;20209;-74
2023/05/24 13:01:27;;;;;;;9.57;2.30;;;20.00;96.60;;;;;;4936270;29;20240;-76
2023/05/24 13:03:53;;;;;;;6.63;2.17;;;19.60;97.10;;;;;;4936476;29;20295;-76
2023/05/24 13:06:20;;;;;;;4.03;1.90;;;19.60;97.20;;;;;;4936382;29;20252;-76
2023/05/24 13:08:47;;;;;;;4.20;2.22;;;19.60;97.30;;;;;;4936110;29;20248;-76
2023/05/24 13:11:15;;;;;;;10.45;2.20;;;19.70;96.90;;;;;;4936155;29;20228;-76
2023/05/24 13:13:43;;;;;;;10.57;2.47;;;19.60;97.20;;;;;;4936158;29;20213;-75
2023/05/24 13:16:11;;;;;;;4.75;1.92;;;19.40;97.20;;;;;;4936610;29;20620;-75
2023/05/24 13:18:38;;;;;;;5.38;1.75;;;19.10;97.90;;;;;;4936328;29;20636;-76
2023/05/24 13:21:05;;;;;;;5.40;1.77;;;18.80;98.50;;;;;;4935785;29;20323;-75
2023/05/24 13:23:33;;;;;;;6.37;2.00;;;18.70;98.50;;;;;;4936068;29;20300;-75
2023/05/24 13:26:01;;;;;;;7.93;1.87;;;18.70;98.30;;;;;;4935792;29;20217;-75
2023/05/24 13:28:30;;;;;;;3.53;1.80;;;18.80;98.20;;;;;;4936060;29;20216;-75
2023/05/24 13:30:58;;;;;;;3.97;2.00;;;19.00;98.00;;;;;;4935906;29;20677;-75
2023/05/24 13:33:26;;;;;;;4.57;2.00;;;19.20;97.30;;;;;;4935863;29;20216;-76
2023/05/24 13:35:53;;;;;;;4.37;1.70;;;19.40;97.50;;;;;;4935828;29;20295;-75
2023/05/24 13:38:21;;;;;;;5.55;2.22;;;19.10;98.20;;;;;;4936319;29;20217;-76
2023/05/24 13:40:49;;;;;;;5.35;2.10;;;19.10;98.00;;;;;;4936094;29;20232;-76
2023/05/24 13:43:16;;;;;;;8.68;2.13;;;19.30;97.80;;;;;;4937880;29;20232;-76
2023/05/24 13:45:44;;;;;;;5.68;1.77;;;19.40;97.30;;;;;;4935534;29;20252;-76
2023/05/24 13:48:11;;;;;;;4.07;1.17;;;19.30;97.70;;;;;;4935955;29;20549;-76
2023/05/24 13:50:39;;;;;;;4.97;1.90;;;19.40;97.80;;;;;;4935909;29;20251;-76
2023/05/24 13:53:06;;;;;;;4.10;1.73;;;19.40;97.60;;;;;;4935852;29;20267;-76
2023/05/24 13:55:36;;;;;;;5.65;1.95;;;19.60;96.70;;;;;;4935740;29;20267;-75
2023/05/24 13:58:04;;;;;;;5.60;1.73;;;19.60;96.70;;;;;;4935770;29;20209;-76
2023/05/24 14:00:32;;;;;;;5.60;1.77;;;19.70;97.10;;;;;;4935806;29;20664;-76
2023/05/24 14:02:59;;;;;;;4.18;1.60;;;19.80;97.50;;;;;;4938164;29;20247;-76
2023/05/24 14:05:27;;;;;;;5.25;1.77;;;19.60;97.30;;;;;;4939491;29;20264;-76
2023/05/24 14:07:56;;;;;;;7.18;1.63;;;19.50;97.20;;;;;;4939698;29;20213;-76
2023/05/24 14:10:23;;;;;;;5.72;1.77;;;19.50;97.50;;;;;;4939403;29;20612;-76
2023/05/24 14:12:50;;;;;;;4.23;1.60;;;19.50;96.80;;;;;;4939655;29;20268;-76
2023/05/24 14:15:17;;;;;;;4.90;1.67;;;19.40;96.70;;;;;;4939376;29;20296;-76
2023/05/24 14:17:44;;;;;;;3.33;1.77;;;19.00;97.20;;;;;;4939502;29;20735;-76
2023/05/24 14:20:12;;;;;;;4.73;1.60;;;19.00;97.10;;;;;;4939092;29;20208;-76
2023/05/24 14:22:39;;;;;;;8.73;1.93;;;18.90;97.40;;;;;;4938772;29;20240;-76
2023/05/24 14:25:08;;;;;;;6.60;1.53;;;18.70;97.60;;;;;;4938799;29;20205;-77
2023/05/24 14:27:36;;;;;;;5.17;1.60;;;18.70;98.10;;;;;;4939022;29;20232;-76
2023/05/24 14:30:03;;;;;;;7.33;2.17;;;18.80;97.50;;;;;;4939397;29;20209;-77
2023/05/24 14:32:30;;;;;;;7.03;1.60;;;18.80;97.40;;;;;;4938987;29;20263;-76
2023/05/24 14:34:56;;;;;;;3.80;1.50;;;18.70;97.70;;;;;;4938990;29;20205;-76
2023/05/24 14:37:23;;;;;;;4.90;1.33;;;18.80;97.40;;;;;;4939788;29;20247;-77
2023/05/24 14:39:50;;;;;;;5.47;1.43;;;18.80;97.60;;;;;;4938945;29;20251;-75
2023/05/24 14:42:19;;;;;;;4.27;1.50;;;18.60;98.10;;;;;;4938802;29;20766;-77
2023/05/24 14:44:45;;;;;;;4.67;1.50;;;18.60;98.00;;;;;;4938943;29;20300;-76
2023/05/24 14:47:12;;;;;;;6.07;1.30;;;18.70;97.80;;;;;;4938835;29;20296;-76
2023/05/24 14:49:39;;;;;;;4.93;1.50;;;18.90;97.90;;;;;;4938717;29;20255;-76
2023/05/24 14:52:06;;;;;;;4.77;1.50;;;18.60;97.70;;;;;;4938743;29;20268;-76
2023/05/24 14:54:33;;;;;;;6.73;1.50;;;18.70;97.80;;;;;;4938777;29;20304;-76
2023/05/24 14:57:01;;;;;;;4.03;1.40;;;18.80;97.50;;;;;;4938742;29;20292;-76
2023/05/24 14:59:29;;;;;;;3.63;1.35;;;18.90;97.70;;;;;;4938521;29;20240;-76
2023/05/24 15:01:56;;;;;;;4.90;1.50;;;19.00;97.50;;;;;;4938548;29;20241;-76
2023/05/24 15:04:23;;;;;;;3.92;1.50;;;19.20;97.70;;;;;;4938750;29;20251;-76
2023/05/24 15:06:50;;;;;;;4.70;1.50;;;19.20;97.60;;;;;;4938587;29;20300;-77
2023/05/24 15:09:17;;;;;;;4.75;1.20;;;19.10;97.50;;;;;;4938593;29;20209;-76
2023/05/24 15:11:44;;;;;;;4.33;1.53;;;19.30;97.60;;;;;;4938330;29;20225;-76
2023/05/24 15:14:11;;;;;;;7.70;1.20;;;19.30;97.10;;;;;;4937351;29;20248;-77
2023/05/24 15:16:39;;;;;;;3.83;1.27;;;19.10;97.40;;;;;;4938085;29;20209;-77
2023/05/24 15:19:06;;;;;;;3.92;1.42;;;18.80;97.90;;;;;;4937919;29;20213;-77
2023/05/24 15:21:33;;;;;;;8.60;1.77;;;18.60;98.10;;;;;;4938104;29;20240;-77
2023/05/24 15:24:00;;;;;;;4.82;1.45;;;18.70;98.30;;;;;;4938358;29;20244;-76
2023/05/24 15:26:27;;;;;;;6.03;1.70;;;18.60;98.50;;;;;;4938102;29;20291;-77
2023/05/24 15:28:54;;;;;;;6.82;1.55;;;18.80;98.50;;;;;;4937871;29;20248;-76
2023/05/24 15:31:21;;;;;;;5.30;1.20;;;18.80;98.70;;;;;;4937690;29;20787;-76
2023/05/24 15:33:49;;;;;;;5.72;1.50;;;18.70;98.50;;;;;;4938195;29;20205;-76
2023/05/24 15:36:16;;;;;;;4.15;1.23;;;18.50;98.90;;;;;;4937965;29;20216;-76
2023/05/24 15:38:43;;;;;;;8.60;1.75;;;18.20;99.30;;;;;;4938208;29;20209;-76
2023/05/24 15:41:10;;;;;;;6.33;1.60;;;18.40;99.40;;;;;;4938061;29;20204;-76
2023/05/24 15:43:37;;;;;;;4.70;1.43;;;18.60;98.70;;;;;;4939342;29;20287;-77
2023/05/24 15:46:04;;;;;;;5.80;1.73;;;18.70;98.20;;;;;;4937969;29;20303;-75
2023/05/24 15:48:31;;;;;;;8.53;1.97;;;18.70;98.30;;;;;;4938081;29;20240;-76
2023/05/24 15:50:59;;;;;;;7.03;1.50;;;18.90;98.40;;;;;;4937663;29;20300;-77
2023/05/24 15:53:26;;;;;;;5.50;1.40;;;18.70;98.60;;;;;;4937869;29;20244;-76
2023/05/24 15:55:56;;;;;;;4.15;1.60;;;18.70;98.80;;;;;;4938620;29;20620;-74
2023/05/24 15:58:23;;;;;;;6.35;1.48;;;18.70;98.60;;;;;;4938379;29;20257;-75
2023/05/24 16:00:52;;;;;;;5.38;1.60;;;19.00;98.50;;;;;;4938136;29;20247;-76
2023/05/24 16:03:19;;;;;;;5.07;1.60;;;19.00;98.20;;;;;;4937317;29;20243;-76
2023/05/24 16:05:47;;;;;;;7.23;1.60;;;18.80;98.50;;;;;;4938039;29;20209;-75
2023/05/24 16:08:16;;;;;;;5.57;1.30;;;18.70;98.50;;;;;;4937822;29;20213;-76
2023/05/24 16:10:43;;;;;;;7.18;1.45;;;18.50;98.80;;;;;;4937114;29;20217;-76
2023/05/24 16:13:10;;;;;;;4.50;1.73;;;18.50;99.50;;;;;;4937812;29;20241;-75
2023/05/24 16:15:39;;;;;;;6.78;1.95;;;18.60;98.90;;;;;;4937256;29;20240;-77
2023/05/24 16:18:07;;;;;;;4.07;1.58;;;18.80;98.90;;;;;;4937392;29;20212;-76
2023/05/24 16:20:34;;;;;;;5.75;1.52;;;18.60;98.70;;;;;;4937400;29;20228;-76
2023/05/24 16:23:02;;;;;;;4.03;1.42;;;18.50;98.70;;;;;;4938024;29;20248;-76
2023/05/24 16:25:31;;;;;;;7.38;1.80;;;18.60;99.10;;;;;;4937352;29;20256;-77
2023/05/24 16:27:59;;;;;;;6.20;1.77;;;18.60;99.20;;;;;;4936814;29;20750;-76
2023/05/24 16:30:26;;;;;;;7.43;1.60;;;18.80;99.00;;;;;;4936956;29;20209;-77
2023/05/24 16:32:52;;;;;;;7.53;2.20;;;18.60;99.00;;;;;;4936755;29;20279;-76
2023/05/24 16:35:19;;;;;;;6.88;1.63;;;18.60;99.00;;;;;;4936546;29;20759;-76
2023/05/24 16:37:48;;;;;;;6.15;1.90;;;18.60;99.10;;;;;;4936658;29;20209;-76
2023/05/24 16:40:15;;;;;;;5.83;1.13;;;18.70;98.30;;;;;;4936871;29;20735;-75
2023/05/24 16:42:43;;;;;;;3.60;1.60;;;18.70;98.20;;;;;;4936572;29;20575;-76
2023/05/24 16:45:10;;;;;;;7.63;1.80;;;18.70;98.10;;;;;;4936888;29;20295;-76
2023/05/24 16:47:37;;;;;;;5.67;1.50;;;18.40;98.40;;;;;;4936704;29;20300;-77
2023/05/24 16:50:05;;;;;;;5.57;1.70;;;18.30;98.90;;;;;;4936675;29;20308;-75
2023/05/24 16:52:32;;;;;;;4.87;1.40;;;18.20;99.30;;;;;;4936643;29;20275;-75
2023/05/24 16:54:59;;;;;;;9.23;1.60;;;18.00;99.60;;;;;;4938724;29;20311;-74
2023/05/24 16:57:26;;;;;;;6.87;1.20;;;17.80;99.30;;;;;;4938261;29;20292;-74
2023/05/24 16:59:54;;;;;;;7.40;1.70;;;17.80;99.20;;;;;;4938552;29;20244;-74
2023/05/24 17:02:21;;;;;;;7.10;1.30;;;18.10;99.10;;;;;;4940675;29;20732;-76
2023/05/24 17:04:48;;;;;;;6.90;1.30;;;18.30;99.70;;;;;;4942862;29;20680;-75
2023/05/24 17:07:15;;;;;;;3.67;1.40;;;18.20;99.90;;;;;;4942565;29;20630;-74
2023/05/24 17:09:42;;;;;;;7.13;1.77;;;18.40;99.40;;;;;;4938507;29;20240;-75
2023/05/24 17:12:09;;;;;;;6.23;1.63;;;18.60;99.20;;;;;;4936544;29;20315;-76
2023/05/24 17:14:36;;;;;;;5.53;1.70;;;18.40;99.50;;;;;;4936698;29;20243;-75
2023/05/24 17:17:05;;;;;;;3.53;1.90;;;18.50;99.70;;;;;;4936753;29;20251;-74
2023/05/24 17:19:32;;;;;;;7.53;1.40;;;18.00;99.90;;;;;;4936872;29;20236;-76
2023/05/24 17:21:58;;;;;;;7.70;1.77;;;17.80;99.90;;;;;;4937385;29;20229;-75
2023/05/24 17:24:26;;;;;;;7.17;1.47;;;17.60;99.90;;;;;;4936747;29;20621;-76
2023/05/24 17:26:53;;;;;;;6.27;1.97;;;17.70;99.90;;;;;;4936104;29;20213;-76
2023/05/24 17:29:21;;;;;;;8.77;1.40;;;17.80;99.90;;;;;;4936302;29;20209;-76
2023/05/24 17:31:48;;;;;;;8.67;1.80;;;17.70;99.90;;;;;;4936418;29;20264;-76
2023/05/24 17:34:16;;;;;;;6.03;1.60;;;17.90;99.80;;;;;;4936279;29;20735;-74
2023/05/24 17:36:43;;;;;;;6.40;1.67;;;17.90;99.80;;;;;;4936618;29;20247;-76
2023/05/24 17:39:10;;;;;;;8.40;1.90;;;18.10;99.30;;;;;;4936703;29;20664;-77
2023/05/24 17:41:37;;;;;;;6.43;1.80;;;18.00;99.50;;;;;;4935540;29;20261;-76
2023/05/24 17:44:05;;;;;;;5.77;2.20;;;17.80;99.60;;;;;;4937108;29;20244;-77
2023/05/24 17:46:32;;;;;;;4.27;1.87;;;17.80;99.90;;;;;;4936874;29;20262;-77
2023/05/24 17:48:59;;;;;;;6.60;2.00;;;17.70;99.90;;;;;;4936531;29;20697;-77
2023/05/24 17:51:28;;;;;;;5.43;1.70;;;17.60;99.90;;;;;;4936299;29;20240;-76
2023/05/24 17:53:54;;;;;;;9.80;1.93;;;17.60;99.90;;;;;;4935930;29;20304;-76
2023/05/24 17:56:22;;;;;;;7.93;1.63;;;17.60;99.90;;;;;;4936146;29;20736;-77
2023/05/24 17:58:49;;;;;;;5.73;2.00;;;17.40;99.90;;;;;;4935945;29;20247;-77
2023/05/24 18:01:16;;;;;;;6.07;2.37;;;17.40;99.90;;;;;;4935880;29;20256;-77
2023/05/24 18:03:43;;;;;;;4.83;1.73;;;17.30;99.90;;;;;;4936088;29;20331;-76
2023/05/24 18:06:10;;;;;;;4.77;2.00;;;17.30;99.90;;;;;;4936308;29;20296;-76
2023/05/24 18:08:41;;;;;;;7.43;1.77;;;17.30;99.90;;;;;;4936006;29;20247;-77
2023/05/24 18:11:11;;;;;;;4.50;1.53;;;17.10;99.90;;;;;;4935455;29;20213;-77
2023/05/24 18:13:40;;;;;;;5.47;1.83;;;17.10;99.90;;;;;;4936124;29;20209;-77
2023/05/24 18:16:08;;;;;;;3.97;1.80;;;16.80;99.90;;;;;;4936126;29;20205;-76
2023/05/24 18:18:36;;;;;;;5.17;1.60;;;16.80;99.90;;;;;;4935713;29;20209;-77
2023/05/24 18:21:03;;;;;;;4.50;1.57;;;16.70;99.90;;;;;;4935621;29;20209;-76
2023/05/24 18:23:32;;;;;;;3.80;1.90;;;16.70;99.90;;;;;;4935229;29;20279;-77
2023/05/24 18:26:01;;;;;;;7.13;1.83;;;16.70;99.90;;;;;;4935336;29;20264;-76
2023/05/24 18:28:28;;;;;;;5.80;1.40;;;16.70;99.90;;;;;;4935436;29;20645;-76
2023/05/24 18:30:55;;;;;;;5.93;1.67;;;16.60;99.90;;;;;;4935594;29;20244;-77
2023/05/24 18:33:21;;;;;;;7.27;2.03;;;16.70;99.90;;;;;;4935840;29;20309;-77
2023/05/24 18:35:48;;;;;;;6.20;2.13;;;16.60;99.90;;;;;;4935358;29;20312;-77
2023/05/24 18:38:15;;;;;;;5.90;1.63;;;16.50;99.90;;;;;;4935286;29;20609;-77
2023/05/24 18:40:42;;;;;;;4.63;2.10;;;16.50;99.90;;;;;;4935250;29;20209;-77
2023/05/24 18:43:10;;;;;;;4.30;1.77;;;16.50;99.90;;;;;;4935229;29;20331;-77
2023/05/24 18:45:37;;;;;;;5.57;2.00;;;16.60;99.90;;;;;;4935479;29;20208;-75
2023/05/24 18:48:05;;;;;;;7.73;2.03;;;16.50;99.90;;;;;;4935281;29;20305;-77
2023/05/24 18:50:31;;;;;;;4.07;1.93;;;16.40;99.90;;;;;;4938581;29;20224;-76
2023/05/24 18:52:58;;;;;;;9.03;1.90;;;16.40;99.90;;;;;;4939341;29;20632;-76
2023/05/24 18:55:25;;;;;;;5.20;1.60;;;16.40;99.90;;;;;;4938677;29;20300;-76
2023/05/24 18:57:52;;;;;;;6.60;1.63;;;16.40;99.90;;;;;;4938754;29;20220;-77
2023/05/24 19:00:21;;;;;;;6.80;1.43;;;16.30;99.90;;;;;;4938568;29;20244;-75
2023/05/24 19:02:48;;;;;;;6.50;1.60;;;16.30;99.90;;;;;;4938648;29;20236;-76
2023/05/24 19:05:15;;;;;;;6.33;1.77;;;16.40;99.90;;;;;;4938513;29;20237;-74
2023/05/24 19:07:42;;;;;;;9.87;2.17;;;16.60;99.90;;;;;;4938471;29;20209;-75
2023/05/24 19:10:09;;;;;;;2.97;1.50;;;16.70;99.90;;;;;;4938464;29;20299;-77
2023/05/24 19:12:36;;;;;;;3.33;1.40;;;16.70;99.90;;;;;;4938005;29;20262;-77
2023/05/24 19:15:04;;;;;;;4.30;1.50;;;16.50;99.90;;;;;;4938156;29;20299;-77
2023/05/24 19:17:32;;;;;;;3.33;1.40;;;16.40;99.90;;;;;;4938297;29;20248;-76
2023/05/24 19:19:59;;;;;;;5.10;1.40;;;16.30;99.90;;;;;;4938145;29;20263;-76
2023/05/24 19:22:26;;;;;;;5.20;1.73;;;16.30;99.90;;;;;;4937904;29;20260;-76
2023/05/24 19:24:54;;;;;;;3.57;1.60;;;16.40;99.90;;;;;;4938268;29;20259;-76
2023/05/24 19:27:21;;;;;;;5.37;1.90;;;16.40;99.90;;;;;;4938023;29;20236;-76
2023/05/24 19:29:48;;;;;;;5.03;1.77;;;16.50;99.90;;;;;;4938214;29;20576;-76
2023/05/24 19:32:15;;;;;;;9.57;3.13;;;16.40;99.90;;;;;;4938013;29;20319;-76
2023/05/24 19:34:43;;;;;;;8.57;2.20;;;16.30;99.90;;;;;;4937752;29;20248;-77
2023/05/24 19:37:10;;;;;;;10.97;3.17;;;16.30;99.90;;;;;;4937937;29;20571;-75
2023/05/24 19:39:37;;;;;;;9.33;2.50;;;16.20;99.90;;;;;;4938039;29;20216;-76
2023/05/24 19:42:05;;;;;;;5.73;1.87;;;16.20;99.90;;;;;;4937807;29;20311;-77
2023/05/24 19:44:32;;;;;;;5.33;1.53;;;16.20;99.90;;;;;;4937656;29;20708;-74